sensor_id;sensor_type;location;lat;lon;timestamp;temperature;humidity
18648;DHT22;9453;50.294;18.644;2024-03-08T05:03:28;0.30;99.90
18648;DHT22;9453;50.294;18.644;2024-03-08T05:05:55;0.20;99.90
18648;DHT22;9453;50.294;18.644;2024-03-08T05:08:23;0.20;99.90
18648;DHT22;9453;50.294;18.644;2024-03-08T05:10:49;0.20;99.90
18648;DHT22;9453;50.294;18.644;2024-03-08T05:13:16;0.20;99.90
18648;DHT22;9453;50.294;18.644;2024-03-08T05:15:47;0.20;99.90
18648;DHT22;9453;50.294;18.644;2024-03-08T05:18:15;0.10;99.90
18648;DHT22;9453;50.294;18.644;2024-03-08T05:20:43;0.20;99.90
18648;DHT22;9453;50.294;18.644;2024-03-08T05:23:10;0.20;99.90
18648;DHT22;9453;50.294;18.644;2024-03-08T05:25:37;0.20;99.90
18648;DHT22;9453;50.294;18.644;2024-03-08T05:28:04;0.20;99.90
18648;DHT22;9453;50.294;18.644;2024-03-08T05:30:31;0.20;99.90
18648;DHT22;9453;50.294;18.644;2024-03-08T05:32:58;0.20;99.90
18648;DHT22;9453;50.294;18.644;2024-03-08T05:35:25;0.20;99.90
18648;DHT22;9453;50.294;18.644;2024-03-08T05:37:53;0.30;99.90
18648;DHT22;9453;50.294;18.644;2024-03-08T05:40:20;0.40;99.90
18648;DHT22;9453;50.294;18.644;2024-03-08T05:42:47;0.40;99.90
18648;DHT22;9453;50.294;18.644;2024-03-08T05:45:14;0.40;99.90
18648;DHT22;9453;50.294;18.644;2024-03-08T05:47:41;0.50;99.90
18648;DHT22;9453;50.294;18.644;2024-03-08T05:50:08;0.50;99.90
18648;DHT22;9453;50.294;18.644;2024-03-08T05:52:36;0.60;99.90
18648;DHT22;9453;50.294;18.644;2024-03-08T05:55:06;0.60;99.90
18648;DHT22;9453;50.294;18.644;2024-03-08T05:57:35;0.60;99.90
18648;DHT22;9453;50.294;18.644;2024-03-08T06:00:04;0.70;99.90
18648;DHT22;9453;50.294;18.644;2024-03-08T06:02:31;0.80;99.90
18648;DHT22;9453;50.294;18.644;2024-03-08T06:04:58;0.80;99.90
18648;DHT22;9453;50.294;18.644;2024-03-08T06:07:27;0.90;99.90
18648;DHT22;9453;50.294;18.644;2024-03-08T06:09:55;0.90;99.90
18648;DHT22;9453;50.294;18.644;2024-03-08T06:12:23;1.00;99.90
18648;DHT22;9453;50.294;18.644;2024-03-08T06:14:54;1.10;99.90
18648;DHT22;9453;50.294;18.644;2024-03-08T06:17:22;1.10;99.90
18648;DHT22;9453;50.294;18.644;2024-03-08T06:19:51;1.10;99.90
18648;DHT22;9453;50.294;18.644;2024-03-08T06:22:18;1.20;99.90
18648;DHT22;9453;50.294;18.644;2024-03-08T06:24:45;1.40;99.90
18648;DHT22;9453;50.294;18.644;2024-03-08T06:27:12;1.40;99.90
18648;DHT22;9453;50.294;18.644;2024-03-08T06:29:40;1.50;99.90
18648;DHT22;9453;50.294;18.644;2024-03-08T06:32:07;1.70;99.90
18648;DHT22;9453;50.294;18.644;2024-03-08T06:34:34;1.80;99.90
18648;DHT22;9453;50.294;18.644;2024-03-08T06:37:01;1.80;99.90
18648;DHT22;9453;50.294;18.644;2024-03-08T06:39:28;1.90;99.90
18648;DHT22;9453;50.294;18.644;2024-03-08T06:41:57;2.00;99.90
18648;DHT22;9453;50.294;18.644;2024-03-08T06:44:24;2.10;99.90
18648;DHT22;9453;50.294;18.644;2024-03-08T06:46:52;2.20;99.90
18648;DHT22;9453;50.294;18.644;2024-03-08T06:49:19;2.30;99.90
18648;DHT22;9453;50.294;18.644;2024-03-08T06:51:46;2.40;99.90
18648;DHT22;9453;50.294;18.644;2024-03-08T06:54:13;2.50;99.90
18648;DHT22;9453;50.294;18.644;2024-03-08T06:56:40;2.60;99.90
18648;DHT22;9453;50.294;18.644;2024-03-08T06:59:07;2.80;99.90
18648;DHT22;9453;50.294;18.644;2024-03-08T07:01:36;2.90;99.90
18648;DHT22;9453;50.294;18.644;2024-03-08T07:04:05;2.90;99.40
18648;DHT22;9453;50.294;18.644;2024-03-08T07:06:32;3.00;99.80
18648;DHT22;9453;50.294;18.644;2024-03-08T07:09:00;3.10;99.50
18648;DHT22;9453;50.294;18.644;2024-03-08T07:11:27;3.00;97.70
18648;DHT22;9453;50.294;18.644;2024-03-08T07:13:54;3.10;98.20
18648;DHT22;9453;50.294;18.644;2024-03-08T07:16:21;3.00;97.40
18648;DHT22;9453;50.294;18.644;2024-03-08T07:18:49;2.90;97.30
18648;DHT22;9453;50.294;18.644;2024-03-08T07:21:19;3.00;97.30
18648;DHT22;9453;50.294;18.644;2024-03-08T07:23:46;3.00;97.10
18648;DHT22;9453;50.294;18.644;2024-03-08T07:26:28;3.10;97.20
18648;DHT22;9453;50.294;18.644;2024-03-08T07:28:56;3.30;97.50
18648;DHT22;9453;50.294;18.644;2024-03-08T07:31:24;3.20;95.80
18648;DHT22;9453;50.294;18.644;2024-03-08T07:33:57;3.20;96.50
18648;DHT22;9453;50.294;18.644;2024-03-08T07:36:25;3.40;96.60
18648;DHT22;9453;50.294;18.644;2024-03-08T07:38:52;3.40;95.80
18648;DHT22;9453;50.294;18.644;2024-03-08T07:41:19;3.40;95.40
18648;DHT22;9453;50.294;18.644;2024-03-08T07:43:46;3.50;95.50
18648;DHT22;9453;50.294;18.644;2024-03-08T07:46:14;3.60;95.80
18648;DHT22;9453;50.294;18.644;2024-03-08T07:48:44;3.60;95.20
18648;DHT22;9453;50.294;18.644;2024-03-08T07:51:11;3.60;94.80
18648;DHT22;9453;50.294;18.644;2024-03-08T07:53:40;3.70;94.80
18648;DHT22;9453;50.294;18.644;2024-03-08T07:56:07;3.60;94.10
18648;DHT22;9453;50.294;18.644;2024-03-08T07:58:36;3.50;94.40
18648;DHT22;9453;50.294;18.644;2024-03-08T08:01:04;3.70;94.20
18648;DHT22;9453;50.294;18.644;2024-03-08T08:03:30;3.90;94.60
18648;DHT22;9453;50.294;18.644;2024-03-08T08:05:57;4.00;94.00
18648;DHT22;9453;50.294;18.644;2024-03-08T08:08:24;4.20;94.10
18648;DHT22;9453;50.294;18.644;2024-03-08T08:10:53;4.30;93.40
18648;DHT22;9453;50.294;18.644;2024-03-08T08:13:20;4.40;93.20
18648;DHT22;9453;50.294;18.644;2024-03-08T08:15:48;4.50;92.70
18648;DHT22;9453;50.294;18.644;2024-03-08T08:18:15;4.50;92.50
18648;DHT22;9453;50.294;18.644;2024-03-08T08:20:43;4.50;91.80
18648;DHT22;9453;50.294;18.644;2024-03-08T08:23:10;4.50;91.30
18648;DHT22;9453;50.294;18.644;2024-03-08T08:25:37;4.50;91.30
18648;DHT22;9453;50.294;18.644;2024-03-08T08:28:05;4.20;91.60
18648;DHT22;9453;50.294;18.644;2024-03-08T08:30:32;4.10;91.50
18648;DHT22;9453;50.294;18.644;2024-03-08T08:32:59;4.10;92.20
18648;DHT22;9453;50.294;18.644;2024-03-08T08:35:26;4.30;92.60
18648;DHT22;9453;50.294;18.644;2024-03-08T08:37:54;4.50;92.40
18648;DHT22;9453;50.294;18.644;2024-03-08T08:40:21;4.60;91.30
18648;DHT22;9453;50.294;18.644;2024-03-08T08:42:48;4.60;91.20
18648;DHT22;9453;50.294;18.644;2024-03-08T08:45:16;4.70;91.00
18648;DHT22;9453;50.294;18.644;2024-03-08T08:47:44;4.80;91.10
18648;DHT22;9453;50.294;18.644;2024-03-08T08:50:12;4.70;90.60
18648;DHT22;9453;50.294;18.644;2024-03-08T08:52:39;4.70;90.70
18648;DHT22;9453;50.294;18.644;2024-03-08T08:55:09;4.80;90.40
18648;DHT22;9453;50.294;18.644;2024-03-08T08:57:40;4.60;90.40
18648;DHT22;9453;50.294;18.644;2024-03-08T09:00:07;4.50;90.00
18648;DHT22;9453;50.294;18.644;2024-03-08T09:02:41;4.60;90.60
18648;DHT22;9453;50.294;18.644;2024-03-08T09:05:08;4.70;90.70
18648;DHT22;9453;50.294;18.644;2024-03-08T09:07:35;4.80;90.40
18648;DHT22;9453;50.294;18.644;2024-03-08T09:10:03;4.80;90.60
18648;DHT22;9453;50.294;18.644;2024-03-08T09:12:30;5.00;90.50
18648;DHT22;9453;50.294;18.644;2024-03-08T09:14:58;5.20;90.40
18648;DHT22;9453;50.294;18.644;2024-03-08T09:17:25;5.40;90.20
18648;DHT22;9453;50.294;18.644;2024-03-08T09:19:53;5.50;88.30
18648;DHT22;9453;50.294;18.644;2024-03-08T09:22:20;5.60;87.40
18648;DHT22;9453;50.294;18.644;2024-03-08T09:24:48;5.50;87.30
18648;DHT22;9453;50.294;18.644;2024-03-08T09:27:14;5.50;87.00
18648;DHT22;9453;50.294;18.644;2024-03-08T09:29:41;5.70;87.80
18648;DHT22;9453;50.294;18.644;2024-03-08T09:32:09;5.80;87.90
18648;DHT22;9453;50.294;18.644;2024-03-08T09:34:37;6.00;86.90
18648;DHT22;9453;50.294;18.644;2024-03-08T09:37:05;6.30;86.60
18648;DHT22;9453;50.294;18.644;2024-03-08T09:39:34;6.10;84.60
18648;DHT22;9453;50.294;18.644;2024-03-08T09:42:01;6.30;84.20
18648;DHT22;9453;50.294;18.644;2024-03-08T09:44:29;6.10;84.70
18648;DHT22;9453;50.294;18.644;2024-03-08T09:46:55;6.30;85.00
18648;DHT22;9453;50.294;18.644;2024-03-08T09:49:23;6.40;85.00
18648;DHT22;9453;50.294;18.644;2024-03-08T09:51:50;6.50;84.10
18648;DHT22;9453;50.294;18.644;2024-03-08T09:54:19;6.60;84.00
18648;DHT22;9453;50.294;18.644;2024-03-08T09:56:48;6.80;83.30
18648;DHT22;9453;50.294;18.644;2024-03-08T09:59:17;6.50;80.90
18648;DHT22;9453;50.294;18.644;2024-03-08T10:02:13;6.10;82.60
18648;DHT22;9453;50.294;18.644;2024-03-08T10:04:41;6.10;83.60
18648;DHT22;9453;50.294;18.644;2024-03-08T10:07:08;6.20;83.70
18648;DHT22;9453;50.294;18.644;2024-03-08T10:09:37;6.30;83.30
18648;DHT22;9453;50.294;18.644;2024-03-08T10:12:05;6.40;82.30
18648;DHT22;9453;50.294;18.644;2024-03-08T10:14:32;6.00;81.90
18648;DHT22;9453;50.294;18.644;2024-03-08T10:16:58;6.10;82.40
18648;DHT22;9453;50.294;18.644;2024-03-08T10:19:26;5.80;82.30
18648;DHT22;9453;50.294;18.644;2024-03-08T10:21:53;5.60;83.20
18648;DHT22;9453;50.294;18.644;2024-03-08T10:24:22;5.60;84.20
18648;DHT22;9453;50.294;18.644;2024-03-08T10:26:53;5.80;84.40
18648;DHT22;9453;50.294;18.644;2024-03-08T10:29:20;5.90;83.60
18648;DHT22;9453;50.294;18.644;2024-03-08T10:31:47;5.90;83.30
18648;DHT22;9453;50.294;18.644;2024-03-08T10:34:16;5.90;83.80
18648;DHT22;9453;50.294;18.644;2024-03-08T10:36:44;6.10;84.50
18648;DHT22;9453;50.294;18.644;2024-03-08T10:39:21;6.20;84.00
18648;DHT22;9453;50.294;18.644;2024-03-08T10:41:56;6.30;83.30
18648;DHT22;9453;50.294;18.644;2024-03-08T10:44:42;6.40;82.80
18648;DHT22;9453;50.294;18.644;2024-03-08T10:47:17;6.50;82.40
18648;DHT22;9453;50.294;18.644;2024-03-08T10:49:51;6.60;81.70
18648;DHT22;9453;50.294;18.644;2024-03-08T10:52:21;6.80;81.30
18648;DHT22;9453;50.294;18.644;2024-03-08T10:54:48;6.90;80.40
18648;DHT22;9453;50.294;18.644;2024-03-08T10:57:19;6.90;80.10
18648;DHT22;9453;50.294;18.644;2024-03-08T10:59:47;6.80;79.90
18648;DHT22;9453;50.294;18.644;2024-03-08T11:02:16;6.80;80.20
18648;DHT22;9453;50.294;18.644;2024-03-08T11:04:48;6.60;80.80
18648;DHT22;9453;50.294;18.644;2024-03-08T11:07:15;6.50;80.90
18648;DHT22;9453;50.294;18.644;2024-03-08T11:09:46;6.50;81.50
18648;DHT22;9453;50.294;18.644;2024-03-08T11:12:36;6.50;80.90
18648;DHT22;9453;50.294;18.644;2024-03-08T11:15:10;6.60;81.00
18648;DHT22;9453;50.294;18.644;2024-03-08T11:17:45;6.60;81.20
18648;DHT22;9453;50.294;18.644;2024-03-08T11:20:14;6.60;81.10
18648;DHT22;9453;50.294;18.644;2024-03-08T11:22:47;6.70;80.70
18648;DHT22;9453;50.294;18.644;2024-03-08T11:25:30;6.70;80.10
18648;DHT22;9453;50.294;18.644;2024-03-08T11:28:09;6.60;80.70
18648;DHT22;9453;50.294;18.644;2024-03-08T11:30:36;6.60;80.70
18648;DHT22;9453;50.294;18.644;2024-03-08T11:33:04;6.70;80.50
18648;DHT22;9453;50.294;18.644;2024-03-08T11:35:31;6.50;80.10
18648;DHT22;9453;50.294;18.644;2024-03-08T11:37:59;6.50;80.90
18648;DHT22;9453;50.294;18.644;2024-03-08T11:40:27;6.60;81.00
18648;DHT22;9453;50.294;18.644;2024-03-08T11:42:54;6.50;80.90
18648;DHT22;9453;50.294;18.644;2024-03-08T11:45:22;6.50;80.00
18648;DHT22;9453;50.294;18.644;2024-03-08T11:47:50;6.50;79.70
18648;DHT22;9453;50.294;18.644;2024-03-08T11:50:18;6.60;80.00
18648;DHT22;9453;50.294;18.644;2024-03-08T11:52:50;6.60;80.20
18648;DHT22;9453;50.294;18.644;2024-03-08T11:55:17;6.60;81.00
18648;DHT22;9453;50.294;18.644;2024-03-08T11:57:44;6.60;80.20
18648;DHT22;9453;50.294;18.644;2024-03-08T12:00:17;6.70;80.90
18648;DHT22;9453;50.294;18.644;2024-03-08T12:03:02;6.70;80.00
18648;DHT22;9453;50.294;18.644;2024-03-08T12:05:29;6.80;79.40
18648;DHT22;9453;50.294;18.644;2024-03-08T12:07:58;6.80;78.30
18648;DHT22;9453;50.294;18.644;2024-03-08T12:10:26;6.80;78.40
18648;DHT22;9453;50.294;18.644;2024-03-08T12:12:55;6.80;78.60
18648;DHT22;9453;50.294;18.644;2024-03-08T12:15:23;6.80;77.60
18648;DHT22;9453;50.294;18.644;2024-03-08T12:17:52;6.90;78.20
18648;DHT22;9453;50.294;18.644;2024-03-08T12:20:22;7.00;77.10
18648;DHT22;9453;50.294;18.644;2024-03-08T12:22:49;7.00;77.90
18648;DHT22;9453;50.294;18.644;2024-03-08T12:25:18;7.10;77.60
18648;DHT22;9453;50.294;18.644;2024-03-08T12:27:45;7.10;77.60
18648;DHT22;9453;50.294;18.644;2024-03-08T12:30:20;7.20;78.50
18648;DHT22;9453;50.294;18.644;2024-03-08T12:32:54;7.30;77.40
18648;DHT22;9453;50.294;18.644;2024-03-08T12:35:26;7.20;76.50
18648;DHT22;9453;50.294;18.644;2024-03-08T12:37:54;7.20;75.40
18648;DHT22;9453;50.294;18.644;2024-03-08T12:40:26;7.10;76.40
18648;DHT22;9453;50.294;18.644;2024-03-08T12:42:54;7.10;76.40
18648;DHT22;9453;50.294;18.644;2024-03-08T12:45:21;7.10;77.10
18648;DHT22;9453;50.294;18.644;2024-03-08T12:47:50;7.20;78.00
18648;DHT22;9453;50.294;18.644;2024-03-08T12:50:17;7.20;77.40
18648;DHT22;9453;50.294;18.644;2024-03-08T12:52:46;7.20;77.40
18648;DHT22;9453;50.294;18.644;2024-03-08T12:55:14;7.30;77.50
18648;DHT22;9453;50.294;18.644;2024-03-08T12:57:43;7.40;77.10
18648;DHT22;9453;50.294;18.644;2024-03-08T13:00:11;7.40;77.50
18648;DHT22;9453;50.294;18.644;2024-03-08T13:02:44;7.50;77.70
18648;DHT22;9453;50.294;18.644;2024-03-08T13:05:11;7.60;77.70
18648;DHT22;9453;50.294;18.644;2024-03-08T13:07:40;7.50;75.80
18648;DHT22;9453;50.294;18.644;2024-03-08T13:10:14;7.50;76.40
18648;DHT22;9453;50.294;18.644;2024-03-08T13:12:41;7.40;75.00
18648;DHT22;9453;50.294;18.644;2024-03-08T13:15:08;7.40;75.60
18648;DHT22;9453;50.294;18.644;2024-03-08T13:17:37;7.40;76.20
18648;DHT22;9453;50.294;18.644;2024-03-08T13:20:07;7.40;75.60
18648;DHT22;9453;50.294;18.644;2024-03-08T13:22:34;7.50;75.80
18648;DHT22;9453;50.294;18.644;2024-03-08T13:25:01;7.60;76.00
18648;DHT22;9453;50.294;18.644;2024-03-08T13:27:32;7.70;75.40
18648;DHT22;9453;50.294;18.644;2024-03-08T13:29:59;7.70;74.70
18648;DHT22;9453;50.294;18.644;2024-03-08T13:32:26;7.80;74.40
18648;DHT22;9453;50.294;18.644;2024-03-08T13:34:53;7.80;76.40
18648;DHT22;9453;50.294;18.644;2024-03-08T13:37:21;7.90;76.60
18648;DHT22;9453;50.294;18.644;2024-03-08T13:39:48;7.90;73.90
18648;DHT22;9453;50.294;18.644;2024-03-08T13:42:15;8.00;74.10
18648;DHT22;9453;50.294;18.644;2024-03-08T13:44:46;8.00;74.70
18648;DHT22;9453;50.294;18.644;2024-03-08T13:47:14;8.10;75.40
18648;DHT22;9453;50.294;18.644;2024-03-08T13:49:40;8.20;75.80
18648;DHT22;9453;50.294;18.644;2024-03-08T13:52:09;8.30;75.10
18648;DHT22;9453;50.294;18.644;2024-03-08T13:54:36;8.30;75.00
18648;DHT22;9453;50.294;18.644;2024-03-08T13:57:04;8.30;74.00
18648;DHT22;9453;50.294;18.644;2024-03-08T13:59:32;8.40;74.40
18648;DHT22;9453;50.294;18.644;2024-03-08T14:02:02;8.40;73.50
18648;DHT22;9453;50.294;18.644;2024-03-08T14:04:30;8.40;75.00
18648;DHT22;9453;50.294;18.644;2024-03-08T14:06:57;8.30;75.50
18648;DHT22;9453;50.294;18.644;2024-03-08T14:09:29;8.50;75.60
18648;DHT22;9453;50.294;18.644;2024-03-08T14:11:56;8.40;75.10
18648;DHT22;9453;50.294;18.644;2024-03-08T14:14:24;8.50;75.40
18648;DHT22;9453;50.294;18.644;2024-03-08T14:16:51;8.50;75.70
18648;DHT22;9453;50.294;18.644;2024-03-08T14:19:21;8.50;75.50
18648;DHT22;9453;50.294;18.644;2024-03-08T14:24:20;8.60;75.80
18648;DHT22;9453;50.294;18.644;2024-03-08T14:26:48;8.60;75.20
18648;DHT22;9453;50.294;18.644;2024-03-08T14:29:24;8.60;74.90
18648;DHT22;9453;50.294;18.644;2024-03-08T14:31:54;8.60;74.50
18648;DHT22;9453;50.294;18.644;2024-03-08T14:34:24;8.60;75.10
18648;DHT22;9453;50.294;18.644;2024-03-08T14:36:58;8.50;75.40
18648;DHT22;9453;50.294;18.644;2024-03-08T14:39:26;8.60;76.00
18648;DHT22;9453;50.294;18.644;2024-03-08T14:41:55;8.60;76.30
18648;DHT22;9453;50.294;18.644;2024-03-08T14:44:26;8.60;75.80
18648;DHT22;9453;50.294;18.644;2024-03-08T14:46:55;8.60;75.80
18648;DHT22;9453;50.294;18.644;2024-03-08T14:49:24;8.60;75.30
18648;DHT22;9453;50.294;18.644;2024-03-08T14:51:59;8.60;75.40
18648;DHT22;9453;50.294;18.644;2024-03-08T14:54:26;8.70;75.80
18648;DHT22;9453;50.294;18.644;2024-03-08T14:56:53;8.60;75.40
18648;DHT22;9453;50.294;18.644;2024-03-08T14:59:22;8.50;76.60
18648;DHT22;9453;50.294;18.644;2024-03-08T15:01:51;8.60;75.90
18648;DHT22;9453;50.294;18.644;2024-03-08T15:04:18;8.50;76.20
18648;DHT22;9453;50.294;18.644;2024-03-08T15:06:52;8.40;76.10
18648;DHT22;9453;50.294;18.644;2024-03-08T15:09:19;8.40;76.30
18648;DHT22;9453;50.294;18.644;2024-03-08T15:11:46;8.40;76.60
18648;DHT22;9453;50.294;18.644;2024-03-08T15:14:14;8.40;76.20
18648;DHT22;9453;50.294;18.644;2024-03-08T15:16:42;8.30;76.00
18648;DHT22;9453;50.294;18.644;2024-03-08T15:19:14;8.30;76.10
18648;DHT22;9453;50.294;18.644;2024-03-08T15:21:41;8.20;76.80
18648;DHT22;9453;50.294;18.644;2024-03-08T15:24:16;8.20;76.90
18648;DHT22;9453;50.294;18.644;2024-03-08T15:26:47;8.10;77.00
18648;DHT22;9453;50.294;18.644;2024-03-08T15:29:16;8.00;77.50
18648;DHT22;9453;50.294;18.644;2024-03-08T15:31:45;7.90;77.30
18648;DHT22;9453;50.294;18.644;2024-03-08T15:34:12;7.80;77.50
18648;DHT22;9453;50.294;18.644;2024-03-08T15:36:42;7.70;77.90
18648;DHT22;9453;50.294;18.644;2024-03-08T15:39:12;7.60;78.50
18648;DHT22;9453;50.294;18.644;2024-03-08T15:41:40;7.50;79.10
18648;DHT22;9453;50.294;18.644;2024-03-08T15:46:35;7.40;79.70
18648;DHT22;9453;50.294;18.644;2024-03-08T15:49:02;7.30;79.60
18648;DHT22;9453;50.294;18.644;2024-03-08T15:51:30;7.20;80.00
18648;DHT22;9453;50.294;18.644;2024-03-08T15:53:58;7.10;80.60
18648;DHT22;9453;50.294;18.644;2024-03-08T15:56:26;7.10;80.80
18648;DHT22;9453;50.294;18.644;2024-03-08T15:58:53;7.00;81.30
18648;DHT22;9453;50.294;18.644;2024-03-08T16:01:21;6.90;81.60
18648;DHT22;9453;50.294;18.644;2024-03-08T16:03:50;6.80;82.80
18648;DHT22;9453;50.294;18.644;2024-03-08T16:06:17;6.70;82.50
18648;DHT22;9453;50.294;18.644;2024-03-08T16:08:46;6.60;83.10
18648;DHT22;9453;50.294;18.644;2024-03-08T16:11:13;6.50;83.60
18648;DHT22;9453;50.294;18.644;2024-03-08T16:13:42;6.50;84.10
18648;DHT22;9453;50.294;18.644;2024-03-08T16:16:08;6.40;84.50
18648;DHT22;9453;50.294;18.644;2024-03-08T16:18:35;6.30;84.80
18648;DHT22;9453;50.294;18.644;2024-03-08T16:21:03;6.30;85.70
18648;DHT22;9453;50.294;18.644;2024-03-08T16:23:30;6.20;85.60
18648;DHT22;9453;50.294;18.644;2024-03-08T16:25:57;6.10;86.00
18648;DHT22;9453;50.294;18.644;2024-03-08T16:28:24;6.00;86.40
18648;DHT22;9453;50.294;18.644;2024-03-08T16:30:55;5.90;87.00
18648;DHT22;9453;50.294;18.644;2024-03-08T16:33:22;5.80;87.20
18648;DHT22;9453;50.294;18.644;2024-03-08T16:35:49;5.80;87.80
18648;DHT22;9453;50.294;18.644;2024-03-08T16:38:17;5.70;88.10
18648;DHT22;9453;50.294;18.644;2024-03-08T16:40:45;5.60;88.40
18648;DHT22;9453;50.294;18.644;2024-03-08T16:43:12;5.60;88.90
18648;DHT22;9453;50.294;18.644;2024-03-08T16:45:40;5.50;89.20
18648;DHT22;9453;50.294;18.644;2024-03-08T16:48:10;5.50;89.30
18648;DHT22;9453;50.294;18.644;2024-03-08T16:50:37;5.40;89.60
18648;DHT22;9453;50.294;18.644;2024-03-08T16:53:07;5.30;89.80
18648;DHT22;9453;50.294;18.644;2024-03-08T16:55:34;5.20;90.00
18648;DHT22;9453;50.294;18.644;2024-03-08T16:58:01;5.10;90.60
18648;DHT22;9453;50.294;18.644;2024-03-08T17:00:30;5.10;90.40
18648;DHT22;9453;50.294;18.644;2024-03-08T17:02:58;5.00;90.40
18648;DHT22;9453;50.294;18.644;2024-03-08T17:05:27;4.90;90.60
18648;DHT22;9453;50.294;18.644;2024-03-08T17:07:55;4.90;90.80
18648;DHT22;9453;50.294;18.644;2024-03-08T17:10:23;4.80;91.10
18648;DHT22;9453;50.294;18.644;2024-03-08T17:12:53;4.80;91.10
18648;DHT22;9453;50.294;18.644;2024-03-08T17:15:22;4.90;91.20
18648;DHT22;9453;50.294;18.644;2024-03-08T17:17:50;4.70;91.30
18648;DHT22;9453;50.294;18.644;2024-03-08T17:20:18;4.70;91.40
18648;DHT22;9453;50.294;18.644;2024-03-08T17:22:48;4.60;91.70
18648;DHT22;9453;50.294;18.644;2024-03-08T17:25:17;4.60;91.80
18648;DHT22;9453;50.294;18.644;2024-03-08T17:27:46;4.50;91.80
18648;DHT22;9453;50.294;18.644;2024-03-08T17:30:17;4.50;92.10
18648;DHT22;9453;50.294;18.644;2024-03-08T17:32:48;4.40;92.30
18648;DHT22;9453;50.294;18.644;2024-03-08T17:35:15;4.40;92.40
18648;DHT22;9453;50.294;18.644;2024-03-08T17:37:47;4.40;92.50
18648;DHT22;9453;50.294;18.644;2024-03-08T17:40:16;4.30;92.80
18648;DHT22;9453;50.294;18.644;2024-03-08T17:42:48;4.30;92.90
18648;DHT22;9453;50.294;18.644;2024-03-08T17:45:15;4.30;93.10
18648;DHT22;9453;50.294;18.644;2024-03-08T17:47:43;4.20;93.30
18648;DHT22;9453;50.294;18.644;2024-03-08T17:50:11;4.20;93.40
18648;DHT22;9453;50.294;18.644;2024-03-08T17:52:41;4.10;93.40
18648;DHT22;9453;50.294;18.644;2024-03-08T17:55:10;4.10;93.50
18648;DHT22;9453;50.294;18.644;2024-03-08T17:57:40;4.10;93.70
18648;DHT22;9453;50.294;18.644;2024-03-08T18:00:08;4.10;93.80
18648;DHT22;9453;50.294;18.644;2024-03-08T18:02:43;4.00;93.80
18648;DHT22;9453;50.294;18.644;2024-03-08T18:05:11;3.90;93.90
18648;DHT22;9453;50.294;18.644;2024-03-08T18:07:40;3.90;94.00
18648;DHT22;9453;50.294;18.644;2024-03-08T18:10:09;3.90;94.10
18648;DHT22;9453;50.294;18.644;2024-03-08T18:12:46;3.90;94.20
18648;DHT22;9453;50.294;18.644;2024-03-08T18:15:17;3.90;94.20
18648;DHT22;9453;50.294;18.644;2024-03-08T18:17:50;3.80;94.30
18648;DHT22;9453;50.294;18.644;2024-03-08T18:20:18;3.80;94.30
18648;DHT22;9453;50.294;18.644;2024-03-08T18:22:47;3.70;94.40
18648;DHT22;9453;50.294;18.644;2024-03-08T18:25:16;3.70;94.50
18648;DHT22;9453;50.294;18.644;2024-03-08T18:27:45;3.70;94.80
18648;DHT22;9453;50.294;18.644;2024-03-08T18:30:13;3.60;95.00
18648;DHT22;9453;50.294;18.644;2024-03-08T18:32:43;3.60;95.30
18648;DHT22;9453;50.294;18.644;2024-03-08T18:35:10;3.60;95.30
18648;DHT22;9453;50.294;18.644;2024-03-08T18:37:38;3.50;95.60
18648;DHT22;9453;50.294;18.644;2024-03-08T18:40:06;3.50;95.70
18648;DHT22;9453;50.294;18.644;2024-03-08T18:42:39;3.50;95.80
18648;DHT22;9453;50.294;18.644;2024-03-08T18:45:08;3.50;96.00
18648;DHT22;9453;50.294;18.644;2024-03-08T18:47:37;3.50;96.10
18648;DHT22;9453;50.294;18.644;2024-03-08T18:50:05;3.50;96.10
18648;DHT22;9453;50.294;18.644;2024-03-08T18:52:32;3.40;96.20
18648;DHT22;9453;50.294;18.644;2024-03-08T18:55:00;3.40;96.20
18648;DHT22;9453;50.294;18.644;2024-03-08T18:57:27;3.30;96.30
18648;DHT22;9453;50.294;18.644;2024-03-08T18:59:55;3.30;96.50
18648;DHT22;9453;50.294;18.644;2024-03-08T19:02:23;3.20;96.70
18648;DHT22;9453;50.294;18.644;2024-03-08T19:04:50;3.20;96.90
18648;DHT22;9453;50.294;18.644;2024-03-08T19:07:18;3.10;97.10
18648;DHT22;9453;50.294;18.644;2024-03-08T19:09:47;3.10;97.20
18648;DHT22;9453;50.294;18.644;2024-03-08T19:12:15;3.10;97.40
18648;DHT22;9453;50.294;18.644;2024-03-08T19:14:44;3.10;97.70
18648;DHT22;9453;50.294;18.644;2024-03-08T19:17:14;3.10;97.80
18648;DHT22;9453;50.294;18.644;2024-03-08T19:19:41;3.10;97.80
18648;DHT22;9453;50.294;18.644;2024-03-08T19:22:08;3.10;98.00
18648;DHT22;9453;50.294;18.644;2024-03-08T19:24:35;3.10;98.10
18648;DHT22;9453;50.294;18.644;2024-03-08T19:27:02;3.10;98.10
18648;DHT22;9453;50.294;18.644;2024-03-08T19:29:32;3.10;98.20
18648;DHT22;9453;50.294;18.644;2024-03-08T19:32:00;3.10;98.20
18648;DHT22;9453;50.294;18.644;2024-03-08T19:34:29;3.10;98.30
18648;DHT22;9453;50.294;18.644;2024-03-08T19:36:56;3.00;98.40
18648;DHT22;9453;50.294;18.644;2024-03-08T19:39:23;3.00;98.50
18648;DHT22;9453;50.294;18.644;2024-03-08T19:41:51;2.90;98.60
18648;DHT22;9453;50.294;18.644;2024-03-08T19:44:18;3.00;98.80
18648;DHT22;9453;50.294;18.644;2024-03-08T19:46:45;2.90;98.80
18648;DHT22;9453;50.294;18.644;2024-03-08T19:49:12;2.90;98.80
18648;DHT22;9453;50.294;18.644;2024-03-08T19:51:43;2.90;98.90
18648;DHT22;9453;50.294;18.644;2024-03-08T19:54:11;2.90;99.10
18648;DHT22;9453;50.294;18.644;2024-03-08T19:56:40;2.90;99.30
18648;DHT22;9453;50.294;18.644;2024-03-08T19:59:09;2.90;99.30
18648;DHT22;9453;50.294;18.644;2024-03-08T20:01:36;2.80;99.20
18648;DHT22;9453;50.294;18.644;2024-03-08T20:04:04;2.80;99.40
18648;DHT22;9453;50.294;18.644;2024-03-08T20:06:31;2.80;99.40
18648;DHT22;9453;50.294;18.644;2024-03-08T20:09:01;2.80;99.50
18648;DHT22;9453;50.294;18.644;2024-03-08T20:11:28;2.80;99.60
18648;DHT22;9453;50.294;18.644;2024-03-08T20:13:55;2.90;99.70
18648;DHT22;9453;50.294;18.644;2024-03-08T20:16:24;2.90;99.60
18648;DHT22;9453;50.294;18.644;2024-03-08T20:18:52;2.90;99.50
18648;DHT22;9453;50.294;18.644;2024-03-08T20:21:19;2.90;99.60
18648;DHT22;9453;50.294;18.644;2024-03-08T20:23:46;2.80;99.50
18648;DHT22;9453;50.294;18.644;2024-03-08T20:26:16;2.80;99.50
18648;DHT22;9453;50.294;18.644;2024-03-08T20:28:47;2.70;99.60
18648;DHT22;9453;50.294;18.644;2024-03-08T20:31:16;2.80;99.70
18648;DHT22;9453;50.294;18.644;2024-03-08T20:33:43;2.80;99.90
18648;DHT22;9453;50.294;18.644;2024-03-08T20:36:12;2.80;99.80
18648;DHT22;9453;50.294;18.644;2024-03-08T20:38:39;2.70;99.90
18648;DHT22;9453;50.294;18.644;2024-03-08T20:41:07;2.70;99.90
18648;DHT22;9453;50.294;18.644;2024-03-08T20:43:36;2.70;99.90
18648;DHT22;9453;50.294;18.644;2024-03-08T20:46:04;2.70;99.90
18648;DHT22;9453;50.294;18.644;2024-03-08T20:48:31;2.70;99.90
18648;DHT22;9453;50.294;18.644;2024-03-08T20:51:02;2.60;99.90
18648;DHT22;9453;50.294;18.644;2024-03-08T20:53:32;2.60;99.90
18648;DHT22;9453;50.294;18.644;2024-03-08T20:56:00;2.60;99.90
18648;DHT22;9453;50.294;18.644;2024-03-08T20:58:28;2.70;99.90
18648;DHT22;9453;50.294;18.644;2024-03-08T21:00:56;2.60;99.90